createdAt,value
2023-05-11T00:02:14.199Z,94552.53
2023-05-11T00:04:41.395Z,94543.19
2023-05-11T00:07:08.113Z,94548.28
2023-05-11T00:09:35.673Z,94544.41
2023-05-11T00:12:02.951Z,94539.66
2023-05-11T00:14:29.785Z,94539.91
2023-05-11T00:16:56.485Z,94542.53
2023-05-11T00:19:23.136Z,94537.53
2023-05-11T00:21:49.805Z,94541.09
2023-05-11T00:24:16.639Z,94533.97
2023-05-11T00:26:43.259Z,94532.13
2023-05-11T00:29:09.912Z,94535.66
2023-05-11T00:31:37.329Z,94531.44
2023-05-11T00:34:04.016Z,94533.53
2023-05-11T00:36:30.689Z,94525.84
2023-05-11T00:38:57.355Z,94528.47
2023-05-11T00:41:24.018Z,94526.56
2023-05-11T00:43:50.678Z,94524.16
2023-05-11T00:46:17.733Z,94521.84
2023-05-11T00:48:44.410Z,94526.81
2023-05-11T00:51:12.691Z,94519.63
2023-05-11T00:53:39.468Z,94518.91
2023-05-11T00:56:06.492Z,94511.50
2023-05-11T00:58:33.343Z,94513.41
2023-05-11T01:01:00.208Z,94516.56
2023-05-11T01:03:27.103Z,94514.41
2023-05-11T01:06:07.339Z,94512.97
2023-05-11T01:08:40.158Z,94515.59
2023-05-11T01:11:34.059Z,94513.25
2023-05-11T01:14:06.572Z,94510.88
2023-05-11T01:16:37.191Z,94517.09
2023-05-11T01:19:15.175Z,94514.00
2023-05-11T01:21:42.026Z,94512.78
2023-05-11T01:24:27.198Z,94517.09
2023-05-11T01:27:17.319Z,94517.81
2023-05-11T01:30:21.253Z,94511.84
2023-05-11T01:32:47.992Z,94513.09
2023-05-11T01:35:23.286Z,94514.75
2023-05-11T01:37:53.624Z,94518.59
2023-05-11T01:40:24.584Z,94512.81
2023-05-11T01:42:58.975Z,94513.56
2023-05-11T01:45:28.758Z,94519.75
2023-05-11T01:47:56.778Z,94515.94
2023-05-11T01:50:25.712Z,94510.47
2023-05-11T01:52:53.605Z,94512.66
2023-05-11T01:55:22.797Z,94513.34
2023-05-11T01:57:52.532Z,94509.00
2023-05-11T02:00:19.650Z,94520.75
2023-05-11T02:02:49.155Z,94521.72
2023-05-11T02:05:20.849Z,94511.22
2023-05-11T02:07:50.574Z,94513.84
2023-05-11T02:10:20.032Z,94510.25
2023-05-11T02:12:52.895Z,94510.50
2023-05-11T02:15:22.052Z,94513.63
2023-05-11T02:17:50.953Z,94516.50
2023-05-11T02:20:18.570Z,94509.34
2023-05-11T02:22:46.293Z,94506.47
2023-05-11T02:25:13.511Z,94509.34
2023-05-11T02:27:40.820Z,94502.66
2023-05-11T02:30:08.765Z,94505.28
2023-05-11T02:32:39.184Z,94499.09
2023-05-11T02:35:11.613Z,94503.59
2023-05-11T02:37:43.321Z,94492.91
2023-05-11T02:40:21.160Z,94491.00
2023-05-11T02:42:53.744Z,94495.53
2023-05-11T02:45:20.793Z,94495.31
2023-05-11T02:47:56.279Z,94503.66
2023-05-11T02:50:24.488Z,94497.19
2023-05-11T02:52:55.812Z,94491.00
2023-05-11T02:55:23.733Z,94492.44
2023-05-11T02:57:50.741Z,94487.19
2023-05-11T03:00:18.074Z,94486.44
2023-05-11T03:02:45.426Z,94485.53
2023-05-11T03:05:12.189Z,94492.19
2023-05-11T03:07:38.946Z,94483.63
2023-05-11T03:10:07.242Z,94487.97
2023-05-11T03:12:35.293Z,94486.28
2023-05-11T03:15:04.025Z,94483.44
2023-05-11T03:17:31.119Z,94482.94
2023-05-11T03:20:00.244Z,94489.16
2023-05-11T03:22:27.839Z,94476.97
2023-05-11T03:24:54.798Z,94479.38
2023-05-11T03:27:22.177Z,94473.41
2023-05-11T03:29:50.122Z,94469.59
2023-05-11T03:32:16.977Z,94472.44
2023-05-11T03:34:43.938Z,94476.03
2023-05-11T03:37:13.302Z,94472.22
2023-05-11T03:39:42.808Z,94471.72
2023-05-11T03:42:10.829Z,94466.72
2023-05-11T03:44:38.532Z,94474.13
2023-05-11T03:47:06.800Z,94459.78
2023-05-11T03:49:33.817Z,94466.47
2023-05-11T03:52:00.530Z,94463.84
2023-05-11T03:54:27.298Z,94466.97
2023-05-11T03:56:53.952Z,94465.03
2023-05-11T03:59:21.268Z,94463.63
2023-05-11T04:01:51.645Z,94466.00
2023-05-11T04:04:18.408Z,94465.06
2023-05-11T04:06:45.412Z,94476.28
2023-05-11T04:09:12.079Z,94463.16
2023-05-11T04:11:39.566Z,94465.56
2023-05-11T04:14:06.282Z,94467.69
2023-05-11T04:16:32.951Z,94468.19
2023-05-11T04:18:59.806Z,94463.66
2023-05-11T04:21:26.660Z,94462.22
2023-05-11T04:23:53.305Z,94469.13
2023-05-11T04:26:20.985Z,94460.31
2023-05-11T04:28:47.629Z,94461.94
2023-05-11T04:31:14.359Z,94472.44
2023-05-11T04:33:40.985Z,94471.75
2023-05-11T04:36:07.736Z,94471.53
2023-05-11T04:38:34.421Z,94471.53
2023-05-11T04:41:08.393Z,94472.22
2023-05-11T04:43:35.665Z,94470.09
2023-05-11T04:46:02.450Z,94472.22
2023-05-11T04:48:29.063Z,94467.94
2023-05-11T04:50:56.341Z,94464.84
2023-05-11T04:53:23.629Z,94470.09
2023-05-11T04:55:50.381Z,94470.81
2023-05-11T04:58:17.088Z,94470.81
2023-05-11T05:00:43.697Z,94468.19
2023-05-11T05:03:10.526Z,94466.97
2023-05-11T05:05:37.256Z,94473.66
2023-05-11T05:08:04.081Z,94475.34
2023-05-11T05:10:30.755Z,94477.47
2023-05-11T05:12:57.328Z,94472.94
2023-05-11T05:15:23.992Z,94465.78
2023-05-11T05:17:50.817Z,94468.19
2023-05-11T05:20:17.769Z,94474.38
2023-05-11T05:22:44.573Z,94466.50
2023-05-11T05:25:12.277Z,94466.97
2023-05-11T05:27:38.905Z,94469.59
2023-05-11T05:30:06.226Z,94478.47
2023-05-11T05:32:32.921Z,94477.00
2023-05-11T05:34:59.625Z,94479.16
2023-05-11T05:37:26.241Z,94485.88
2023-05-11T05:39:52.886Z,94479.88
2023-05-11T05:42:19.513Z,94485.34
2023-05-11T05:44:46.249Z,94487.97
2023-05-11T05:47:12.908Z,94482.94
2023-05-11T05:49:39.519Z,94472.94
2023-05-11T05:52:06.426Z,94477.75
2023-05-11T05:54:33.127Z,94480.59
2023-05-11T05:56:59.849Z,94478.69
2023-05-11T05:59:26.812Z,94486.06
2023-05-11T06:01:53.471Z,94481.53
2023-05-11T06:04:20.394Z,94477.75
2023-05-11T06:06:47.569Z,94476.81
2023-05-11T06:09:14.235Z,94486.06
2023-05-11T06:11:41.381Z,94475.06
2023-05-11T06:14:08.211Z,94482.53
2023-05-11T06:16:35.056Z,94481.31
2023-05-11T06:19:01.824Z,94482.06
2023-05-11T06:21:28.554Z,94489.44
2023-05-11T06:23:55.194Z,94484.88
2023-05-11T06:26:25.175Z,94486.28
2023-05-11T06:28:52.757Z,94477.94
2023-05-11T06:31:19.575Z,94475.31
2023-05-11T06:33:46.316Z,94475.78
2023-05-11T06:36:12.958Z,94488.44
2023-05-11T06:38:39.642Z,94488.72
2023-05-11T06:41:06.742Z,94489.66
2023-05-11T06:43:33.808Z,94480.81
2023-05-11T06:46:00.991Z,94486.56
2023-05-11T06:48:29.988Z,94481.50
2023-05-11T06:50:57.274Z,94487.69
2023-05-11T06:53:24.079Z,94476.22
2023-05-11T06:55:50.940Z,94471.44
2023-05-11T06:58:20.627Z,94475.03
2023-05-11T07:00:47.460Z,94475.75
2023-05-11T07:03:14.219Z,94474.53
2023-05-11T07:05:41.057Z,94475.22
2023-05-11T07:08:07.841Z,94471.66
2023-05-11T07:10:34.536Z,94470.44
2023-05-11T07:13:01.166Z,94469.97
2023-05-11T07:15:27.857Z,94477.34
2023-05-11T07:17:54.562Z,94470.19
2023-05-11T07:20:21.513Z,94477.56
2023-05-11T07:22:48.303Z,94475.91
2023-05-11T07:25:14.979Z,94477.81
2023-05-11T07:27:41.670Z,94478.53
2023-05-11T07:30:08.717Z,94478.31
2023-05-11T07:32:35.464Z,94477.81
2023-05-11T07:35:02.152Z,94484.28
2023-05-11T07:37:28.799Z,94475.06
2023-05-11T07:39:55.781Z,94480.09
2023-05-11T07:42:22.477Z,94484.97
2023-05-11T07:44:49.167Z,94485.22
2023-05-11T07:47:16.313Z,94488.63
2023-05-11T07:49:44.194Z,94482.41
2023-05-11T07:52:11.734Z,94481.88
2023-05-11T07:54:40.326Z,94484.75
2023-05-11T07:57:07.142Z,94477.09
2023-05-11T07:59:33.852Z,94478.94
2023-05-11T08:02:00.710Z,94479.19
2023-05-11T08:04:27.916Z,94476.28
2023-05-11T08:06:54.753Z,94477.94
2023-05-11T08:09:22.600Z,94478.66
2023-05-11T08:11:49.952Z,94482.44
2023-05-11T08:14:17.423Z,94476.44
2023-05-11T08:16:44.406Z,94476.88
2023-05-11T08:19:13.091Z,94474.25
2023-05-11T08:21:40.387Z,94474.69
2023-05-11T08:24:07.234Z,94477.09
2023-05-11T08:26:34.299Z,94470.38
2023-05-11T08:29:00.971Z,94474.13
2023-05-11T08:31:27.838Z,94467.66
2023-05-11T08:33:54.719Z,94468.09
2023-05-11T08:36:21.668Z,94473.59
2023-05-11T08:38:48.544Z,94474.28
2023-05-11T08:41:15.434Z,94469.00
2023-05-11T08:43:43.672Z,94462.03
2023-05-11T08:46:11.697Z,94468.66
2023-05-11T08:48:38.642Z,94471.50
2023-05-11T08:51:05.660Z,94469.81
2023-05-11T08:53:32.861Z,94472.16
2023-05-11T08:56:06.882Z,94469.34
2023-05-11T08:58:35.031Z,94471.66
2023-05-11T09:01:03.720Z,94468.25
2023-05-11T09:03:31.491Z,94460.78
2023-05-11T09:05:59.735Z,94469.19
2023-05-11T09:08:30.652Z,94462.78
2023-05-11T09:10:57.540Z,94457.66
2023-05-11T09:13:25.788Z,94452.13
2023-05-11T09:15:52.848Z,94459.94
2023-05-11T09:18:19.512Z,94457.53
2023-05-11T09:20:46.422Z,94464.34
2023-05-11T09:23:17.684Z,94460.59
2023-05-11T09:25:44.815Z,94460.50
2023-05-11T09:28:17.348Z,94458.31
2023-05-11T09:30:52.020Z,94461.59
2023-05-11T09:33:26.552Z,94456.28
2023-05-11T09:35:53.759Z,94453.81
2023-05-11T09:38:20.920Z,94452.84
2023-05-11T09:40:52.714Z,94454.25
2023-05-11T09:43:30.290Z,94456.13
2023-05-11T09:46:07.561Z,94451.19
2023-05-11T09:48:35.374Z,94451.81
2023-05-11T09:51:07.200Z,94453.72
2023-05-11T09:53:45.966Z,94449.06
2023-05-11T09:56:14.093Z,94454.31
2023-05-11T09:58:47.418Z,94452.09
2023-05-11T10:01:15.502Z,94439.34
2023-05-11T10:03:50.833Z,94444.13
2023-05-11T10:06:20.020Z,94446.25
2023-05-11T10:08:47.744Z,94440.75
2023-05-11T10:11:14.873Z,94448.13
2023-05-11T10:13:44.164Z,94439.63
2023-05-11T10:16:12.863Z,94444.41
2023-05-11T10:18:40.719Z,94438.81
2023-05-11T10:21:08.380Z,94447.66
2023-05-11T10:23:36.368Z,94436.81
2023-05-11T10:26:04.982Z,94435.78
2023-05-11T10:28:31.787Z,94439.16
2023-05-11T10:30:59.581Z,94434.81
2023-05-11T10:33:26.963Z,94433.78
2023-05-11T10:35:54.417Z,94433.78
2023-05-11T10:38:22.663Z,94435.19
2023-05-11T10:40:52.581Z,94427.50
2023-05-11T10:44:03.874Z,94424.88
2023-05-11T10:47:08.735Z,94432.56
2023-05-11T10:50:13.437Z,94425.97
2023-05-11T10:52:58.996Z,94425.56
2023-05-11T10:55:37.887Z,94426.28
2023-05-11T10:58:19.705Z,94421.13
2023-05-11T11:01:23.597Z,94424.25
2023-05-11T11:03:58.516Z,94422.72
2023-05-11T11:06:25.865Z,94429.13
2023-05-11T11:09:00.994Z,94424.66
2023-05-11T11:11:48.150Z,94426.94
2023-05-11T11:14:16.795Z,94418.28
2023-05-11T11:17:17.262Z,94419.38
2023-05-11T11:19:44.277Z,94423.09
2023-05-11T11:22:35.587Z,94420.59
2023-05-11T11:25:06.629Z,94428.72
2023-05-11T11:27:44.984Z,94423.84
2023-05-11T11:30:31.671Z,94425.78
2023-05-11T11:33:07.763Z,94416.13
2023-05-11T11:35:43.593Z,94417.88
2023-05-11T11:38:13.530Z,94417.50
2023-05-11T11:40:50.543Z,94416.34
2023-05-11T11:43:45.869Z,94418.88
2023-05-11T11:46:25.002Z,94422.16
2023-05-11T11:48:54.371Z,94418.47
2023-05-11T11:51:33.628Z,94427.19
2023-05-11T11:54:01.061Z,94424.69
2023-05-11T11:56:30.934Z,94425.19
2023-05-11T11:59:01.472Z,94416.75
2023-05-11T12:01:34.864Z,94419.81
2023-05-11T12:04:04.797Z,94426.53
2023-05-11T12:06:41.616Z,94418.59
2023-05-11T12:09:08.649Z,94427.50
2023-05-11T12:11:35.503Z,94417.47
2023-05-11T12:14:02.826Z,94424.56
2023-05-11T12:16:29.879Z,94420.78
2023-05-11T12:19:01.574Z,94420.91
2023-05-11T12:21:30.231Z,94424.75
2023-05-11T12:24:04.897Z,94423.41
2023-05-11T12:26:33.423Z,94420.59
2023-05-11T12:29:11.721Z,94420.41
2023-05-11T12:31:43.301Z,94426.31
2023-05-11T12:34:23.204Z,94416.25
2023-05-11T12:36:51.845Z,94420.59
2023-05-11T12:39:20.300Z,94410.75
2023-05-11T12:41:51.700Z,94413.75
2023-05-11T12:44:19.100Z,94410.38
2023-05-11T12:46:47.364Z,94411.13
2023-05-11T12:52:01.682Z,94405.81
2023-05-11T12:55:00.165Z,94409.38
2023-05-11T12:57:29.892Z,94404.72
2023-05-11T13:00:16.569Z,94407.84
2023-05-11T13:02:53.301Z,94395.38
2023-05-11T13:05:24.931Z,94403.41
2023-05-11T13:08:05.352Z,94398.81
2023-05-11T13:10:32.341Z,94402.09
2023-05-11T13:12:59.436Z,94399.75
2023-05-11T13:15:28.693Z,94389.78
2023-05-11T13:17:59.040Z,94396.00
2023-05-11T13:20:29.576Z,94384.94
2023-05-11T13:23:22.667Z,94385.34
2023-05-11T13:25:49.379Z,94383.94
2023-05-11T13:28:17.007Z,94385.16
2023-05-11T13:30:43.914Z,94375.00
2023-05-11T13:33:10.724Z,94383.72
2023-05-11T13:35:41.812Z,94378.53
2023-05-11T13:38:09.471Z,94385.66
2023-05-11T13:40:36.546Z,94377.63
2023-05-11T13:43:03.282Z,94374.59
2023-05-11T13:45:30.243Z,94374.19
2023-05-11T13:47:57.043Z,94374.38
2023-05-11T13:50:24.530Z,94375.13
2023-05-11T13:52:51.965Z,94373.75
2023-05-11T13:55:19.138Z,94370.31
2023-05-11T13:57:46.224Z,94368.19
2023-05-11T14:00:13.548Z,94371.94
2023-05-11T14:02:40.409Z,94367.38
2023-05-11T14:05:08.497Z,94359.75
2023-05-11T14:07:46.336Z,94360.66
2023-05-11T14:10:14.523Z,94362.97
2023-05-11T14:12:41.459Z,94365.63
2023-05-11T14:15:08.946Z,94355.66
2023-05-11T14:17:35.955Z,94354.66
2023-05-11T14:20:03.427Z,94356.78
2023-05-11T14:22:30.510Z,94357.50
2023-05-11T14:24:57.239Z,94358.59
2023-05-11T14:27:23.905Z,94358.59
2023-05-11T14:29:52.306Z,94353.59
2023-05-11T14:32:19.698Z,94354.44
2023-05-11T14:34:47.369Z,94360.63
2023-05-11T14:37:14.157Z,94357.41
2023-05-11T14:39:41.516Z,94357.50
2023-05-11T14:42:08.809Z,94350.00
2023-05-11T14:44:35.756Z,94355.38
2023-05-11T14:47:02.564Z,94354.66
2023-05-11T14:49:29.487Z,94354.53
2023-05-11T14:51:57.768Z,94356.81
2023-05-11T14:54:24.458Z,94354.25
2023-05-11T14:56:56.162Z,94349.88
2023-05-11T14:59:26.168Z,94350.91
2023-05-11T15:01:52.997Z,94352.84
2023-05-11T15:04:20.515Z,94347.69
2023-05-11T15:06:47.183Z,94352.97
2023-05-11T15:09:13.935Z,94355.75
2023-05-11T15:11:40.709Z,94354.75
2023-05-11T15:14:07.456Z,94359.31
2023-05-11T15:16:34.179Z,94364.28
2023-05-11T15:19:00.925Z,94359.09
2023-05-11T15:21:27.827Z,94364.88
2023-05-11T15:23:54.566Z,94364.97
2023-05-11T15:26:22.382Z,94372.56
2023-05-11T15:28:49.042Z,94373.38
2023-05-11T15:31:15.938Z,94377.53
2023-05-11T15:33:43.325Z,94378.25
2023-05-11T15:36:14.862Z,94372.44
2023-05-11T15:38:43.022Z,94377.09
2023-05-11T15:41:09.833Z,94377.69
2023-05-11T15:43:36.501Z,94373.97
2023-05-11T15:46:07.210Z,94375.97
2023-05-11T15:48:34.309Z,94377.56
2023-05-11T15:51:01.342Z,94367.75
2023-05-11T15:53:28.067Z,94382.47
2023-05-11T15:55:55.644Z,94378.63
2023-05-11T15:58:23.194Z,94379.63
2023-05-11T16:00:49.970Z,94379.88
2023-05-11T16:03:17.488Z,94379.28
2023-05-11T16:05:44.973Z,94375.19
2023-05-11T16:08:12.087Z,94372.13
2023-05-11T16:10:39.025Z,94375.97
2023-05-11T16:13:05.837Z,94371.09
2023-05-11T16:15:33.086Z,94370.25
2023-05-11T16:18:01.541Z,94364.22
2023-05-11T16:20:30.631Z,94375.50
2023-05-11T16:22:57.275Z,94383.72
2023-05-11T16:25:24.222Z,94373.19
2023-05-11T16:27:50.990Z,94380.88
2023-05-11T16:30:24.907Z,94375.19
2023-05-11T16:32:52.633Z,94370.25
2023-05-11T16:35:19.723Z,94373.16
2023-05-11T16:37:47.886Z,94375.09
2023-05-11T16:40:15.064Z,94367.09
2023-05-11T16:42:42.451Z,94367.78
2023-05-11T16:45:09.496Z,94370.13
2023-05-11T16:47:36.189Z,94361.72
2023-05-11T16:50:02.888Z,94367.78
2023-05-11T16:52:29.581Z,94359.78
2023-05-11T16:54:58.978Z,94365.06
2023-05-11T16:57:26.025Z,94367.09
2023-05-11T16:59:52.815Z,94360.22
2023-05-11T17:02:20.020Z,94366.25
2023-05-11T17:04:47.107Z,94360.47
2023-05-11T17:07:14.950Z,94368.31
2023-05-11T17:09:42.257Z,94366.78
2023-05-11T17:12:10.539Z,94370.25
2023-05-11T17:14:37.494Z,94366.88
2023-05-11T17:17:04.901Z,94367.81
2023-05-11T17:19:31.739Z,94368.50
2023-05-11T17:21:58.775Z,94366.78
2023-05-11T17:24:25.579Z,94370.50
2023-05-11T17:26:52.227Z,94368.28
2023-05-11T17:29:18.939Z,94369.13
2023-05-11T17:31:48.811Z,94371.53
2023-05-11T17:34:16.149Z,94369.63
2023-05-11T17:36:43.440Z,94365.66
2023-05-11T17:39:11.117Z,94370.94
2023-05-11T17:41:37.980Z,94360.69
2023-05-11T17:44:05.506Z,94364.03
2023-05-11T17:46:32.264Z,94361.97
2023-05-11T17:48:59.102Z,94365.94
2023-05-11T17:51:25.939Z,94367.38
2023-05-11T17:53:52.701Z,94371.22
2023-05-11T17:56:19.498Z,94361.59
2023-05-11T17:58:46.318Z,94366.66
2023-05-11T18:01:14.161Z,94365.47
2023-05-11T18:03:41.910Z,94374.56
2023-05-11T18:06:09.055Z,94369.13
2023-05-11T18:08:38.464Z,94377.19
2023-05-11T18:11:07.747Z,94379.66
2023-05-11T18:13:35.774Z,94375.38
2023-05-11T18:16:02.577Z,94380.53
2023-05-11T18:18:29.272Z,94371.84
2023-05-11T18:20:56.578Z,94375.16
2023-05-11T18:23:23.307Z,94373.25
2023-05-11T18:25:49.920Z,94369.69
2023-05-11T18:28:16.586Z,94374.97
2023-05-11T18:30:43.214Z,94374.97
2023-05-11T18:33:09.885Z,94376.19
2023-05-11T18:35:39.075Z,94381.94
2023-05-11T18:38:05.934Z,94372.63
2023-05-11T18:40:32.575Z,94382.75
2023-05-11T18:42:59.214Z,94380.13
2023-05-11T18:45:30.417Z,94377.97
2023-05-11T18:47:57.441Z,94385.69
2023-05-11T18:50:24.184Z,94379.00
2023-05-11T18:52:50.866Z,94380.22
2023-05-11T18:55:18.072Z,94380.22
2023-05-11T18:57:45.988Z,94379.28
2023-05-11T19:00:13.568Z,94375.94
2023-05-11T19:02:40.440Z,94379.59
2023-05-11T19:05:07.789Z,94382.72
2023-05-11T19:07:34.667Z,94379.38
2023-05-11T19:10:01.438Z,94385.66
2023-05-11T19:12:28.147Z,94384.94
2023-05-11T19:14:57.925Z,94391.44
2023-05-11T19:17:24.594Z,94382.63
2023-05-11T19:19:52.364Z,94382.41
2023-05-11T19:22:21.056Z,94391.53
2023-05-11T19:24:47.681Z,94391.28
2023-05-11T19:27:15.516Z,94382.50
2023-05-11T19:29:42.795Z,94390.88
2023-05-11T19:32:09.514Z,94390.19
2023-05-11T19:34:36.551Z,94394.03
2023-05-11T19:37:03.440Z,94399.59
2023-05-11T19:39:30.117Z,94395.31
2023-05-11T19:41:56.813Z,94389.31
2023-05-11T19:44:23.456Z,94397.94
2023-05-11T19:46:50.146Z,94396.31
2023-05-11T19:49:17.505Z,94394.91
2023-05-11T19:51:44.241Z,94391.56
2023-05-11T19:54:11.513Z,94399.94
2023-05-11T19:56:39.364Z,94389.91
2023-05-11T19:59:06.166Z,94395.50
2023-05-11T20:01:33.090Z,94394.28
2023-05-11T20:03:59.940Z,94399.31
2023-05-11T20:06:26.785Z,94402.47
2023-05-11T20:08:54.240Z,94393.81
2023-05-11T20:11:22.265Z,94400.34
2023-05-11T20:13:49.352Z,94395.56
2023-05-11T20:16:16.277Z,94397.97
2023-05-11T20:18:43.108Z,94397.97
2023-05-11T20:21:09.823Z,94393.00
2023-05-11T20:23:37.610Z,94401.41
2023-05-11T20:26:04.900Z,94399.47
2023-05-11T20:28:32.005Z,94393.28
2023-05-11T20:30:58.741Z,94395.19
2023-05-11T20:35:55.072Z,94399.78
2023-05-11T20:38:22.319Z,94396.94
2023-05-11T20:40:57.902Z,94398.34
2023-05-11T20:43:27.479Z,94390.22
2023-05-11T20:45:54.629Z,94394.78
2023-05-11T20:48:28.884Z,94390.53
2023-05-11T20:51:05.605Z,94393.66
2023-05-11T20:53:32.250Z,94392.94
2023-05-11T20:56:00.194Z,94388.88
2023-05-11T20:58:27.851Z,94395.34
2023-05-11T21:00:54.465Z,94391.28
2023-05-11T21:03:21.330Z,94389.88
2023-05-11T21:05:48.241Z,94388.75
2023-05-11T21:08:15.144Z,94387.03
2023-05-11T21:10:42.186Z,94385.59
2023-05-11T21:13:08.811Z,94387.53
2023-05-11T21:15:35.732Z,94383.97
2023-05-11T21:18:02.565Z,94391.38
2023-05-11T21:20:29.272Z,94389.22
2023-05-11T21:22:55.893Z,94382.56
2023-05-11T21:25:22.620Z,94385.69
2023-05-11T21:27:49.250Z,94385.69
2023-05-11T21:30:16.006Z,94396.22
2023-05-11T21:32:42.648Z,94386.16
2023-05-11T21:35:09.947Z,94384.31
2023-05-11T21:37:36.623Z,94388.78
2023-05-11T21:40:03.540Z,94382.81
2023-05-11T21:42:34.663Z,94386.69
2023-05-11T21:45:02.861Z,94387.19
2023-05-11T21:47:29.561Z,94385.50
2023-05-11T21:49:57.929Z,94386.72
2023-05-11T21:52:24.704Z,94387.94
2023-05-11T21:54:51.459Z,94387.44
2023-05-11T21:57:18.261Z,94387.22
2023-05-11T21:59:44.999Z,94393.00
2023-05-11T22:02:11.820Z,94386.31
2023-05-11T22:04:38.499Z,94397.03
2023-05-11T22:07:05.352Z,94392.78
2023-05-11T22:09:32.040Z,94392.78
2023-05-11T22:11:58.999Z,94395.00
2023-05-11T22:14:26.133Z,94398.53
2023-05-11T22:16:52.969Z,94401.66
2023-05-11T22:19:19.637Z,94395.19
2023-05-11T22:21:46.379Z,94405.72
2023-05-11T22:24:13.829Z,94405.72
2023-05-11T22:26:40.514Z,94408.34
2023-05-11T22:29:07.134Z,94406.91
2023-05-11T22:31:33.816Z,94405.00
2023-05-11T22:34:00.481Z,94397.63
2023-05-11T22:36:28.312Z,94404.81
2023-05-11T22:38:54.979Z,94402.44
2023-05-11T22:41:22.037Z,94405.78
2023-05-11T22:43:48.692Z,94407.22
2023-05-11T22:46:15.406Z,94401.72
2023-05-11T22:48:42.258Z,94408.91
2023-05-11T22:51:08.891Z,94404.88
2023-05-11T22:53:35.500Z,94403.66
2023-05-11T22:56:07.513Z,94399.59
2023-05-11T22:58:34.221Z,94409.41
2023-05-11T23:01:01.450Z,94407.03
2023-05-11T23:03:28.666Z,94406.56
2023-05-11T23:05:55.694Z,94404.41
2023-05-11T23:08:23.077Z,94407.03
2023-05-11T23:10:50.608Z,94401.78
2023-05-11T23:13:17.838Z,94404.63
2023-05-11T23:15:44.575Z,94401.78
2023-05-11T23:18:11.664Z,94399.16
2023-05-11T23:20:38.449Z,94397.72
2023-05-11T23:23:05.055Z,94386.50
2023-05-11T23:25:31.680Z,94395.63
2023-05-11T23:27:58.366Z,94390.13
2023-05-11T23:30:25.049Z,94388.94
2023-05-11T23:32:51.694Z,94394.69
2023-05-11T23:35:18.417Z,94390.63
2023-05-11T23:37:45.246Z,94393.47
2023-05-11T23:40:12.083Z,94389.19
2023-05-11T23:42:39.215Z,94387.78
2023-05-11T23:45:08.031Z,94394.22
2023-05-11T23:47:35.187Z,94388.06
2023-05-11T23:50:02.172Z,94385.91
2023-05-11T23:52:29.786Z,94385.19
2023-05-11T23:54:56.515Z,94388.31
2023-05-11T23:57:23.192Z,94388.31
2023-05-11T23:59:49.857Z,94392.84
